Metar z połowy godziny Komunikat METAR ze strony awiacja.imgw.pl Metar G30 EPRZ METAR EPRZ 190230Z 23002KT 5000 BR NSC 16/16 Q1018 =